sensor_id;sensor_type;location;lat;lon;timestamp;pressure;altitude;pressure_sealevel;temperature;humidity
69223;BME280;56514;51.816;-0.026;2023-04-23T00:01:50;99641.50;;;13.08;60.71
69223;BME280;56514;51.816;-0.026;2023-04-23T00:05:02;99640.78;;;13.06;61.29
69223;BME280;56514;51.816;-0.026;2023-04-23T00:08:16;99639.13;;;13.05;61.01
69223;BME280;56514;51.816;-0.026;2023-04-23T00:11:27;99625.34;;;13.02;61.72
69223;BME280;56514;51.816;-0.026;2023-04-23T00:14:12;99622.41;;;12.95;62.21
69223;BME280;56514;51.816;-0.026;2023-04-23T00:16:57;99618.97;;;12.85;61.96
69223;BME280;56514;51.816;-0.026;2023-04-23T00:19:42;99613.72;;;12.76;63.17
69223;BME280;56514;51.816;-0.026;2023-04-23T00:22:28;99614.31;;;12.70;62.88
69223;BME280;56514;51.816;-0.026;2023-04-23T00:25:13;99608.06;;;12.71;62.61
69223;BME280;56514;51.816;-0.026;2023-04-23T00:27:58;99608.06;;;12.71;63.70
69223;BME280;56514;51.816;-0.026;2023-04-23T00:30:45;99602.31;;;12.75;64.05
69223;BME280;56514;51.816;-0.026;2023-04-23T00:33:30;99603.00;;;12.77;63.89
69223;BME280;56514;51.816;-0.026;2023-04-23T00:36:14;99599.91;;;12.82;64.00
69223;BME280;56514;51.816;-0.026;2023-04-23T00:39:00;99598.66;;;12.86;64.56
69223;BME280;56514;51.816;-0.026;2023-04-23T00:41:45;99597.38;;;12.90;64.62
69223;BME280;56514;51.816;-0.026;2023-04-23T00:44:30;99586.06;;;12.97;64.44
69223;BME280;56514;51.816;-0.026;2023-04-23T00:47:16;99579.78;;;12.98;64.68
69223;BME280;56514;51.816;-0.026;2023-04-23T00:50:02;99581.03;;;13.04;64.69
69223;BME280;56514;51.816;-0.026;2023-04-23T00:52:48;99575.31;;;13.08;64.51
69223;BME280;56514;51.816;-0.026;2023-04-23T00:55:35;99581.00;;;13.13;64.49
69223;BME280;56514;51.816;-0.026;2023-04-23T00:58:43;99578.22;;;13.15;64.93
69223;BME280;56514;51.816;-0.026;2023-04-23T01:01:29;99578.34;;;13.13;65.43
69223;BME280;56514;51.816;-0.026;2023-04-23T01:04:15;99568.22;;;13.09;65.22
69223;BME280;56514;51.816;-0.026;2023-04-23T01:07:01;99574.31;;;13.09;65.20
69223;BME280;56514;51.816;-0.026;2023-04-23T01:09:48;99575.16;;;13.10;65.37
69223;BME280;56514;51.816;-0.026;2023-04-23T01:12:34;99567.63;;;13.15;65.28
69223;BME280;56514;51.816;-0.026;2023-04-23T01:15:43;99570.72;;;13.10;65.89
69223;BME280;56514;51.816;-0.026;2023-04-23T01:18:52;99570.84;;;13.09;65.82
69223;BME280;56514;51.816;-0.026;2023-04-23T01:22:14;99569.72;;;13.11;66.12
69223;BME280;56514;51.816;-0.026;2023-04-23T01:25:24;99561.09;;;13.09;66.27
69223;BME280;56514;51.816;-0.026;2023-04-23T01:28:33;99552.69;;;13.14;66.47
69223;BME280;56514;51.816;-0.026;2023-04-23T01:31:43;99541.03;;;13.07;66.80
69223;BME280;56514;51.816;-0.026;2023-04-23T01:34:54;99541.94;;;12.88;66.91
69223;BME280;56514;51.816;-0.026;2023-04-23T01:38:06;99538.84;;;12.66;67.31
69223;BME280;56514;51.816;-0.026;2023-04-23T01:41:18;99537.94;;;12.48;67.98
69223;BME280;56514;51.816;-0.026;2023-04-23T01:44:27;99529.63;;;12.33;67.86
69223;BME280;56514;51.816;-0.026;2023-04-23T01:47:36;99535.94;;;12.22;68.36
69223;BME280;56514;51.816;-0.026;2023-04-23T01:50:47;99532.34;;;12.14;69.19
69223;BME280;56514;51.816;-0.026;2023-04-23T01:53:56;99531.22;;;12.07;69.83
69223;BME280;56514;51.816;-0.026;2023-04-23T01:57:05;99523.59;;;12.04;70.28
69223;BME280;56514;51.816;-0.026;2023-04-23T02:00:14;99520.78;;;12.05;70.12
69223;BME280;56514;51.816;-0.026;2023-04-23T02:03:25;99515.34;;;12.16;70.66
69223;BME280;56514;51.816;-0.026;2023-04-23T02:06:36;99519.19;;;12.31;70.57
69223;BME280;56514;51.816;-0.026;2023-04-23T02:09:46;99515.09;;;12.47;70.60
69223;BME280;56514;51.816;-0.026;2023-04-23T02:12:35;99512.84;;;12.61;70.52
69223;BME280;56514;51.816;-0.026;2023-04-23T02:15:20;99513.03;;;12.77;69.77
69223;BME280;56514;51.816;-0.026;2023-04-23T02:18:05;99509.31;;;12.70;69.89
69223;BME280;56514;51.816;-0.026;2023-04-23T02:20:51;99502.88;;;12.73;69.39
69223;BME280;56514;51.816;-0.026;2023-04-23T02:23:36;99508.97;;;12.83;69.30
69223;BME280;56514;51.816;-0.026;2023-04-23T02:26:23;99506.25;;;12.92;68.71
69223;BME280;56514;51.816;-0.026;2023-04-23T02:29:08;99511.31;;;12.86;68.98
69223;BME280;56514;51.816;-0.026;2023-04-23T02:31:54;99512.13;;;12.86;68.67
69223;BME280;56514;51.816;-0.026;2023-04-23T02:34:43;99511.03;;;12.89;68.61
69223;BME280;56514;51.816;-0.026;2023-04-23T02:37:28;99507.97;;;12.84;68.81
69223;BME280;56514;51.816;-0.026;2023-04-23T02:40:13;99503.69;;;12.83;68.84
69223;BME280;56514;51.816;-0.026;2023-04-23T02:42:58;99505.03;;;12.87;68.81
69223;BME280;56514;51.816;-0.026;2023-04-23T02:45:43;99501.91;;;12.74;68.80
69223;BME280;56514;51.816;-0.026;2023-04-23T02:48:28;99499.19;;;12.83;69.09
69223;BME280;56514;51.816;-0.026;2023-04-23T02:51:13;99494.66;;;12.76;69.27
69223;BME280;56514;51.816;-0.026;2023-04-23T02:53:58;99486.41;;;12.79;69.05
69223;BME280;56514;51.816;-0.026;2023-04-23T02:56:43;99481.72;;;12.73;69.45
69223;BME280;56514;51.816;-0.026;2023-04-23T02:59:31;99490.50;;;12.73;69.22
69223;BME280;56514;51.816;-0.026;2023-04-23T03:02:16;99494.66;;;12.76;68.85
69223;BME280;56514;51.816;-0.026;2023-04-23T03:05:01;99493.69;;;12.77;68.51
69223;BME280;56514;51.816;-0.026;2023-04-23T03:07:46;99496.34;;;12.77;68.88
69223;BME280;56514;51.816;-0.026;2023-04-23T03:10:30;99500.78;;;12.76;68.72
69223;BME280;56514;51.816;-0.026;2023-04-23T03:13:37;99497.44;;;12.74;68.96
69223;BME280;56514;51.816;-0.026;2023-04-23T03:16:46;99493.88;;;12.66;69.33
69223;BME280;56514;51.816;-0.026;2023-04-23T03:19:55;99503.06;;;12.62;69.70
69223;BME280;56514;51.816;-0.026;2023-04-23T03:23:04;99499.75;;;12.60;69.67
69223;BME280;56514;51.816;-0.026;2023-04-23T03:26:14;99493.06;;;12.56;69.72
69223;BME280;56514;51.816;-0.026;2023-04-23T03:29:24;99499.19;;;12.56;69.78
69223;BME280;56514;51.816;-0.026;2023-04-23T03:32:35;99494.47;;;12.60;69.66
69223;BME280;56514;51.816;-0.026;2023-04-23T03:35:45;99496.25;;;12.59;69.66
69223;BME280;56514;51.816;-0.026;2023-04-23T03:38:54;99490.53;;;12.64;69.86
69223;BME280;56514;51.816;-0.026;2023-04-23T03:42:03;99485.38;;;12.62;69.50
69223;BME280;56514;51.816;-0.026;2023-04-23T03:45:14;99484.41;;;12.63;69.26
69223;BME280;56514;51.816;-0.026;2023-04-23T03:48:24;99491.94;;;12.68;69.18
69223;BME280;56514;51.816;-0.026;2023-04-23T03:51:33;99486.63;;;12.68;69.19
69223;BME280;56514;51.816;-0.026;2023-04-23T03:54:43;99482.44;;;12.65;69.31
69223;BME280;56514;51.816;-0.026;2023-04-23T03:57:53;99488.28;;;12.69;69.17
69223;BME280;56514;51.816;-0.026;2023-04-23T04:01:03;99482.31;;;12.67;69.29
69223;BME280;56514;51.816;-0.026;2023-04-23T04:03:52;99478.41;;;12.71;69.35
69223;BME280;56514;51.816;-0.026;2023-04-23T04:06:36;99482.44;;;12.65;68.76
69223;BME280;56514;51.816;-0.026;2023-04-23T04:09:21;99473.81;;;12.63;68.92
69223;BME280;56514;51.816;-0.026;2023-04-23T04:12:07;99478.00;;;12.66;68.75
69223;BME280;56514;51.816;-0.026;2023-04-23T04:14:52;99478.00;;;12.66;68.71
69223;BME280;56514;51.816;-0.026;2023-04-23T04:17:37;99470.06;;;12.66;68.57
69223;BME280;56514;51.816;-0.026;2023-04-23T04:20:22;99463.78;;;12.67;68.44
69223;BME280;56514;51.816;-0.026;2023-04-23T04:23:07;99464.78;;;12.66;68.58
69223;BME280;56514;51.816;-0.026;2023-04-23T04:25:52;99458.78;;;12.64;68.64
69223;BME280;56514;51.816;-0.026;2023-04-23T04:28:40;99448.78;;;12.58;68.56
69223;BME280;56514;51.816;-0.026;2023-04-23T04:31:25;99442.97;;;12.54;68.56
69223;BME280;56514;51.816;-0.026;2023-04-23T04:34:11;99441.00;;;12.56;68.53
69223;BME280;56514;51.816;-0.026;2023-04-23T04:36:58;99443.81;;;12.55;68.67
69223;BME280;56514;51.816;-0.026;2023-04-23T04:39:43;99460.81;;;12.52;68.47
69223;BME280;56514;51.816;-0.026;2023-04-23T04:42:32;99453.50;;;12.64;68.22
69223;BME280;56514;51.816;-0.026;2023-04-23T04:45:17;99456.91;;;12.47;68.06
69223;BME280;56514;51.816;-0.026;2023-04-23T04:48:03;99459.03;;;12.43;68.30
69223;BME280;56514;51.816;-0.026;2023-04-23T04:50:50;99453.59;;;12.45;68.27
69223;BME280;56514;51.816;-0.026;2023-04-23T04:53:35;99461.00;;;12.41;68.18
69223;BME280;56514;51.816;-0.026;2023-04-23T04:56:23;99456.69;;;12.40;68.02
69223;BME280;56514;51.816;-0.026;2023-04-23T04:59:09;99460.28;;;12.39;68.03
69223;BME280;56514;51.816;-0.026;2023-04-23T05:02:14;99462.28;;;12.37;68.00
69223;BME280;56514;51.816;-0.026;2023-04-23T05:05:26;99462.22;;;12.47;67.49
69223;BME280;56514;51.816;-0.026;2023-04-23T05:08:31;99456.16;;;12.36;67.68
69223;BME280;56514;51.816;-0.026;2023-04-23T05:11:37;99453.34;;;12.38;67.73
69223;BME280;56514;51.816;-0.026;2023-04-23T05:14:43;99458.06;;;12.44;67.57
69223;BME280;56514;51.816;-0.026;2023-04-23T05:17:52;99454.81;;;12.50;67.41
69223;BME280;56514;51.816;-0.026;2023-04-23T05:21:03;99456.47;;;12.51;67.64
69223;BME280;56514;51.816;-0.026;2023-04-23T05:24:12;99451.19;;;12.51;67.42
69223;BME280;56514;51.816;-0.026;2023-04-23T05:27:21;99450.44;;;12.59;67.21
69223;BME280;56514;51.816;-0.026;2023-04-23T05:30:13;99452.00;;;12.61;66.81
69223;BME280;56514;51.816;-0.026;2023-04-23T05:33:23;99464.66;;;12.58;67.19
69223;BME280;56514;51.816;-0.026;2023-04-23T05:36:31;99447.16;;;12.57;66.98
69223;BME280;56514;51.816;-0.026;2023-04-23T05:39:40;99459.19;;;12.69;66.74
69223;BME280;56514;51.816;-0.026;2023-04-23T05:42:49;99464.03;;;12.73;66.54
69223;BME280;56514;51.816;-0.026;2023-04-23T05:46:01;99463.59;;;12.78;65.71
69223;BME280;56514;51.816;-0.026;2023-04-23T05:49:12;99455.66;;;12.78;66.30
69223;BME280;56514;51.816;-0.026;2023-04-23T05:52:22;99448.63;;;12.86;65.91
69223;BME280;56514;51.816;-0.026;2023-04-23T05:55:31;99452.28;;;13.03;65.14
69223;BME280;56514;51.816;-0.026;2023-04-23T05:58:19;99456.31;;;13.07;65.25
69223;BME280;56514;51.816;-0.026;2023-04-23T06:01:07;99454.22;;;13.10;65.09
69223;BME280;56514;51.816;-0.026;2023-04-23T06:03:52;99445.53;;;13.18;64.44
69223;BME280;56514;51.816;-0.026;2023-04-23T06:06:49;99447.41;;;13.25;64.78
69223;BME280;56514;51.816;-0.026;2023-04-23T06:09:34;99450.72;;;13.45;63.98
69223;BME280;56514;51.816;-0.026;2023-04-23T06:12:19;99444.13;;;13.49;63.81
69223;BME280;56514;51.816;-0.026;2023-04-23T06:15:07;99453.44;;;13.53;63.66
69223;BME280;56514;51.816;-0.026;2023-04-23T06:17:53;99441.38;;;13.58;63.23
69223;BME280;56514;51.816;-0.026;2023-04-23T06:20:38;99453.47;;;13.61;62.85
69223;BME280;56514;51.816;-0.026;2023-04-23T06:23:23;99450.69;;;13.62;62.68
69223;BME280;56514;51.816;-0.026;2023-04-23T06:26:07;99453.19;;;13.64;63.02
69223;BME280;56514;51.816;-0.026;2023-04-23T06:28:52;99457.81;;;13.62;62.76
69223;BME280;56514;51.816;-0.026;2023-04-23T06:31:37;99460.88;;;13.75;61.94
69223;BME280;56514;51.816;-0.026;2023-04-23T06:34:23;99459.06;;;13.75;61.86
69223;BME280;56514;51.816;-0.026;2023-04-23T06:37:08;99470.44;;;13.68;62.32
69223;BME280;56514;51.816;-0.026;2023-04-23T06:39:52;99476.72;;;13.67;61.98
69223;BME280;56514;51.816;-0.026;2023-04-23T06:42:37;99473.41;;;13.65;62.05
69223;BME280;56514;51.816;-0.026;2023-04-23T06:45:22;99477.63;;;13.58;61.91
69223;BME280;56514;51.816;-0.026;2023-04-23T06:48:07;99480.09;;;13.51;62.28
69223;BME280;56514;51.816;-0.026;2023-04-23T06:50:52;99476.81;;;13.57;61.88
69223;BME280;56514;51.816;-0.026;2023-04-23T06:53:37;99476.25;;;13.71;61.63
69223;BME280;56514;51.816;-0.026;2023-04-23T06:56:22;99486.38;;;13.76;60.70
69223;BME280;56514;51.816;-0.026;2023-04-23T06:59:07;99474.59;;;13.70;60.59
69223;BME280;56514;51.816;-0.026;2023-04-23T07:02:16;99479.47;;;13.57;61.59
69223;BME280;56514;51.816;-0.026;2023-04-23T07:05:20;99479.38;;;13.67;61.03
69223;BME280;56514;51.816;-0.026;2023-04-23T07:08:25;99478.91;;;13.71;62.34
69223;BME280;56514;51.816;-0.026;2023-04-23T07:11:34;99474.03;;;14.10;60.72
69223;BME280;56514;51.816;-0.026;2023-04-23T07:14:44;99477.38;;;14.38;59.55
69223;BME280;56514;51.816;-0.026;2023-04-23T07:17:54;99479.78;;;14.57;57.21
69223;BME280;56514;51.816;-0.026;2023-04-23T07:21:03;99478.19;;;14.30;58.16
69223;BME280;56514;51.816;-0.026;2023-04-23T07:24:12;99475.22;;;14.33;58.03
69223;BME280;56514;51.816;-0.026;2023-04-23T07:27:30;99475.91;;;14.35;58.47
69223;BME280;56514;51.816;-0.026;2023-04-23T07:30:39;99465.91;;;14.63;58.81
69223;BME280;56514;51.816;-0.026;2023-04-23T07:33:48;99466.34;;;15.00;56.91
69223;BME280;56514;51.816;-0.026;2023-04-23T07:36:34;99480.81;;;15.21;56.39
69223;BME280;56514;51.816;-0.026;2023-04-23T07:39:19;99472.03;;;15.13;56.47
69223;BME280;56514;51.816;-0.026;2023-04-23T07:42:05;99476.19;;;15.23;55.57
69223;BME280;56514;51.816;-0.026;2023-04-23T07:44:49;99476.16;;;15.15;55.64
69223;BME280;56514;51.816;-0.026;2023-04-23T07:47:34;99469.66;;;15.02;56.90
69223;BME280;56514;51.816;-0.026;2023-04-23T07:50:21;99472.69;;;15.07;56.24
69223;BME280;56514;51.816;-0.026;2023-04-23T07:53:07;99471.22;;;15.20;55.77
69223;BME280;56514;51.816;-0.026;2023-04-23T07:55:52;99475.34;;;15.23;55.47
69223;BME280;56514;51.816;-0.026;2023-04-23T07:58:37;99478.91;;;15.47;55.59
69223;BME280;56514;51.816;-0.026;2023-04-23T08:01:23;99476.41;;;15.70;55.17
69223;BME280;56514;51.816;-0.026;2023-04-23T08:04:08;99487.19;;;16.09;54.11
69223;BME280;56514;51.816;-0.026;2023-04-23T08:06:53;99478.13;;;16.42;53.21
69223;BME280;56514;51.816;-0.026;2023-04-23T08:09:38;99474.84;;;16.78;52.39
69223;BME280;56514;51.816;-0.026;2023-04-23T08:12:24;99471.50;;;17.15;52.06
69223;BME280;56514;51.816;-0.026;2023-04-23T08:15:09;99477.13;;;17.42;51.02
69223;BME280;56514;51.816;-0.026;2023-04-23T08:17:54;99473.47;;;17.43;49.76
69223;BME280;56514;51.816;-0.026;2023-04-23T08:20:39;99478.06;;;17.27;48.97
69223;BME280;56514;51.816;-0.026;2023-04-23T08:23:24;99474.75;;;16.94;50.17
69223;BME280;56514;51.816;-0.026;2023-04-23T08:26:11;99480.88;;;16.72;50.84
69223;BME280;56514;51.816;-0.026;2023-04-23T08:28:56;99470.47;;;16.85;49.71
69223;BME280;56514;51.816;-0.026;2023-04-23T08:31:47;99472.13;;;16.56;49.88
69223;BME280;56514;51.816;-0.026;2023-04-23T08:34:32;99472.81;;;16.34;50.26
69223;BME280;56514;51.816;-0.026;2023-04-23T08:37:21;99480.22;;;16.00;51.57
69223;BME280;56514;51.816;-0.026;2023-04-23T08:40:30;99480.06;;;15.93;51.70
69223;BME280;56514;51.816;-0.026;2023-04-23T08:43:44;99481.53;;;16.04;51.61
69223;BME280;56514;51.816;-0.026;2023-04-23T08:46:52;99476.19;;;16.20;50.91
69223;BME280;56514;51.816;-0.026;2023-04-23T08:49:58;99470.63;;;16.53;50.91
69223;BME280;56514;51.816;-0.026;2023-04-23T08:53:08;99472.50;;;17.36;50.72
69223;BME280;56514;51.816;-0.026;2023-04-23T08:56:18;99466.59;;;18.23;48.56
69223;BME280;56514;51.816;-0.026;2023-04-23T08:59:26;99472.34;;;18.64;48.01
69223;BME280;56514;51.816;-0.026;2023-04-23T09:02:40;99462.34;;;19.01;46.81
69223;BME280;56514;51.816;-0.026;2023-04-23T09:05:50;99458.78;;;19.15;45.03
69223;BME280;56514;51.816;-0.026;2023-04-23T09:09:02;99455.75;;;18.68;45.60
69223;BME280;56514;51.816;-0.026;2023-04-23T09:12:13;99456.84;;;18.30;46.35
69223;BME280;56514;51.816;-0.026;2023-04-23T09:15:24;99453.41;;;17.93;46.25
69223;BME280;56514;51.816;-0.026;2023-04-23T09:18:34;99458.13;;;17.68;46.84
69223;BME280;56514;51.816;-0.026;2023-04-23T09:21:47;99455.31;;;17.39;47.66
69223;BME280;56514;51.816;-0.026;2023-04-23T09:25:00;99459.25;;;17.51;47.89
69223;BME280;56514;51.816;-0.026;2023-04-23T09:28:09;99458.16;;;17.15;48.12
69223;BME280;56514;51.816;-0.026;2023-04-23T09:31:20;99452.97;;;16.91;49.88
69223;BME280;56514;51.816;-0.026;2023-04-23T09:34:33;99447.72;;;16.75;51.16
69223;BME280;56514;51.816;-0.026;2023-04-23T09:37:46;99447.47;;;16.62;52.02
69223;BME280;56514;51.816;-0.026;2023-04-23T09:40:56;99448.31;;;16.62;51.80
69223;BME280;56514;51.816;-0.026;2023-04-23T09:44:07;99446.59;;;17.00;52.44
69223;BME280;56514;51.816;-0.026;2023-04-23T09:47:21;99442.84;;;17.39;51.36
69223;BME280;56514;51.816;-0.026;2023-04-23T09:50:32;99440.38;;;17.75;50.86
69223;BME280;56514;51.816;-0.026;2023-04-23T09:53:42;99437.50;;;18.14;50.43
69223;BME280;56514;51.816;-0.026;2023-04-23T09:56:54;99430.81;;;18.47;49.42
69223;BME280;56514;51.816;-0.026;2023-04-23T10:00:13;99433.19;;;18.56;49.42
69223;BME280;56514;51.816;-0.026;2023-04-23T10:03:27;99435.75;;;18.79;48.58
69223;BME280;56514;51.816;-0.026;2023-04-23T10:06:37;99441.91;;;18.79;48.10
69223;BME280;56514;51.816;-0.026;2023-04-23T10:09:46;99438.63;;;18.63;47.72
69223;BME280;56514;51.816;-0.026;2023-04-23T10:12:55;99442.06;;;18.57;48.41
69223;BME280;56514;51.816;-0.026;2023-04-23T10:16:06;99434.66;;;18.73;48.69
69223;BME280;56514;51.816;-0.026;2023-04-23T10:19:22;99432.66;;;18.96;47.77
69223;BME280;56514;51.816;-0.026;2023-04-23T10:22:33;99433.94;;;19.00;47.32
69223;BME280;56514;51.816;-0.026;2023-04-23T10:25:44;99431.06;;;19.02;47.35
69223;BME280;56514;51.816;-0.026;2023-04-23T10:28:56;99430.06;;;19.03;46.96
69223;BME280;56514;51.816;-0.026;2023-04-23T10:32:07;99426.16;;;18.84;47.92
69223;BME280;56514;51.816;-0.026;2023-04-23T10:35:17;99428.22;;;18.68;48.22
69223;BME280;56514;51.816;-0.026;2023-04-23T10:38:29;99432.16;;;18.72;49.11
69223;BME280;56514;51.816;-0.026;2023-04-23T10:41:40;99430.19;;;18.80;47.64
69223;BME280;56514;51.816;-0.026;2023-04-23T10:44:55;99432.91;;;18.66;47.97
69223;BME280;56514;51.816;-0.026;2023-04-23T10:48:05;99419.38;;;18.67;48.29
69223;BME280;56514;51.816;-0.026;2023-04-23T10:51:16;99423.13;;;18.87;48.36
69223;BME280;56514;51.816;-0.026;2023-04-23T10:54:31;99430.44;;;18.64;46.96
69223;BME280;56514;51.816;-0.026;2023-04-23T10:58:00;99430.00;;;18.46;48.15
69223;BME280;56514;51.816;-0.026;2023-04-23T11:01:10;99421.97;;;18.17;48.84
69223;BME280;56514;51.816;-0.026;2023-04-23T11:07:33;99423.31;;;17.84;47.77
69223;BME280;56514;51.816;-0.026;2023-04-23T11:10:57;99416.34;;;17.98;46.97
69223;BME280;56514;51.816;-0.026;2023-04-23T11:14:11;99409.88;;;17.92;47.09
69223;BME280;56514;51.816;-0.026;2023-04-23T11:16:57;99413.53;;;17.77;47.80
69223;BME280;56514;51.816;-0.026;2023-04-23T11:22:54;99413.63;;;17.83;46.66
69223;BME280;56514;51.816;-0.026;2023-04-23T11:25:40;99411.88;;;17.61;47.51
69223;BME280;56514;51.816;-0.026;2023-04-23T11:28:29;99413.56;;;17.54;48.11
69223;BME280;56514;51.816;-0.026;2023-04-23T11:31:16;99405.44;;;17.70;47.24
69223;BME280;56514;51.816;-0.026;2023-04-23T11:34:01;99419.81;;;17.84;47.99
69223;BME280;56514;51.816;-0.026;2023-04-23T11:36:51;99418.34;;;17.81;47.92
69223;BME280;56514;51.816;-0.026;2023-04-23T11:39:38;99424.53;;;17.59;48.58
69223;BME280;56514;51.816;-0.026;2023-04-23T11:42:24;99424.06;;;17.10;50.42
69223;BME280;56514;51.816;-0.026;2023-04-23T11:45:21;99419.13;;;16.69;51.97
69223;BME280;56514;51.816;-0.026;2023-04-23T11:48:07;99415.09;;;16.42;52.07
69223;BME280;56514;51.816;-0.026;2023-04-23T11:50:52;99431.09;;;16.26;52.72
69223;BME280;56514;51.816;-0.026;2023-04-23T11:53:45;99424.56;;;15.82;53.09
69223;BME280;56514;51.816;-0.026;2023-04-23T11:56:30;99424.44;;;15.43;54.90
69223;BME280;56514;51.816;-0.026;2023-04-23T11:59:40;99426.81;;;14.89;56.56
69223;BME280;56514;51.816;-0.026;2023-04-23T12:05:59;99431.28;;;14.39;59.91
69223;BME280;56514;51.816;-0.026;2023-04-23T12:09:04;99426.53;;;14.50;60.08
69223;BME280;56514;51.816;-0.026;2023-04-23T12:12:10;99425.63;;;14.67;60.14
69223;BME280;56514;51.816;-0.026;2023-04-23T12:15:20;99420.00;;;14.86;60.58
69223;BME280;56514;51.816;-0.026;2023-04-23T12:18:37;99429.63;;;14.87;59.76
69223;BME280;56514;51.816;-0.026;2023-04-23T12:21:50;99427.28;;;14.84;60.08
69223;BME280;56514;51.816;-0.026;2023-04-23T12:25:04;99425.97;;;14.80;60.75
69223;BME280;56514;51.816;-0.026;2023-04-23T12:28:21;99428.00;;;14.94;60.08
69223;BME280;56514;51.816;-0.026;2023-04-23T12:31:31;99426.34;;;15.09;59.92
69223;BME280;56514;51.816;-0.026;2023-04-23T12:34:21;99424.72;;;15.24;58.98
69223;BME280;56514;51.816;-0.026;2023-04-23T12:37:07;99416.25;;;15.29;59.54
69223;BME280;56514;51.816;-0.026;2023-04-23T12:39:53;99421.28;;;15.40;59.51
69223;BME280;56514;51.816;-0.026;2023-04-23T12:42:41;99414.25;;;15.31;58.91
69223;BME280;56514;51.816;-0.026;2023-04-23T12:45:35;99425.22;;;15.28;58.75
69223;BME280;56514;51.816;-0.026;2023-04-23T12:48:22;99422.88;;;15.33;59.04
69223;BME280;56514;51.816;-0.026;2023-04-23T12:51:07;99411.28;;;15.66;57.51
69223;BME280;56514;51.816;-0.026;2023-04-23T12:53:53;99418.72;;;15.87;57.57
69223;BME280;56514;51.816;-0.026;2023-04-23T12:56:38;99412.53;;;16.10;57.09
69223;BME280;56514;51.816;-0.026;2023-04-23T12:59:23;99416.28;;;16.32;56.42
69223;BME280;56514;51.816;-0.026;2023-04-23T13:02:08;99410.91;;;16.48;54.96
69223;BME280;56514;51.816;-0.026;2023-04-23T13:04:53;99414.66;;;16.69;55.56
69223;BME280;56514;51.816;-0.026;2023-04-23T13:07:44;99413.44;;;17.02;54.75
69223;BME280;56514;51.816;-0.026;2023-04-23T13:10:34;99405.22;;;17.12;54.56
69223;BME280;56514;51.816;-0.026;2023-04-23T13:13:19;99408.78;;;17.27;53.78
69223;BME280;56514;51.816;-0.026;2023-04-23T13:16:05;99409.34;;;17.37;54.48
69223;BME280;56514;51.816;-0.026;2023-04-23T13:18:50;99410.84;;;17.39;53.97
69223;BME280;56514;51.816;-0.026;2023-04-23T13:21:36;99404.78;;;17.54;54.29
69223;BME280;56514;51.816;-0.026;2023-04-23T13:24:21;99401.88;;;17.78;53.89
69223;BME280;56514;51.816;-0.026;2023-04-23T13:27:06;99398.75;;;17.89;52.17
69223;BME280;56514;51.816;-0.026;2023-04-23T13:30:10;99383.00;;;17.94;52.53
69223;BME280;56514;51.816;-0.026;2023-04-23T13:33:19;99381.84;;;18.40;51.94
69223;BME280;56514;51.816;-0.026;2023-04-23T13:36:24;99380.47;;;18.79;50.23
69223;BME280;56514;51.816;-0.026;2023-04-23T13:39:30;99381.78;;;19.26;49.36
69223;BME280;56514;51.816;-0.026;2023-04-23T13:42:35;99377.25;;;19.75;48.61
69223;BME280;56514;51.816;-0.026;2023-04-23T13:45:45;99374.03;;;20.13;47.97
69223;BME280;56514;51.816;-0.026;2023-04-23T13:48:55;99377.69;;;20.40;46.93
69223;BME280;56514;51.816;-0.026;2023-04-23T13:52:04;99385.38;;;20.56;45.34
69223;BME280;56514;51.816;-0.026;2023-04-23T13:55:14;99375.56;;;20.29;44.35
69223;BME280;56514;51.816;-0.026;2023-04-23T13:58:26;99379.53;;;20.05;44.51
69223;BME280;56514;51.816;-0.026;2023-04-23T14:01:38;99377.44;;;20.01;45.26
69223;BME280;56514;51.816;-0.026;2023-04-23T14:04:23;99376.84;;;20.05;44.55
69223;BME280;56514;51.816;-0.026;2023-04-23T14:07:10;99371.63;;;19.91;42.72
69223;BME280;56514;51.816;-0.026;2023-04-23T14:09:57;99372.41;;;19.85;43.10
69223;BME280;56514;51.816;-0.026;2023-04-23T14:12:43;99369.22;;;19.75;44.05
69223;BME280;56514;51.816;-0.026;2023-04-23T14:15:29;99371.69;;;19.70;43.99
69223;BME280;56514;51.816;-0.026;2023-04-23T14:18:16;99370.97;;;19.61;44.44
69223;BME280;56514;51.816;-0.026;2023-04-23T14:21:01;99363.25;;;19.45;44.28
69223;BME280;56514;51.816;-0.026;2023-04-23T14:26:35;99365.38;;;18.72;44.33
69223;BME280;56514;51.816;-0.026;2023-04-23T14:29:40;99363.84;;;18.48;44.60
69223;BME280;56514;51.816;-0.026;2023-04-23T14:32:32;99359.91;;;18.59;45.72
69223;BME280;56514;51.816;-0.026;2023-04-23T14:35:19;99368.25;;;18.70;45.49
69223;BME280;56514;51.816;-0.026;2023-04-23T14:38:04;99369.38;;;18.61;45.58
69223;BME280;56514;51.816;-0.026;2023-04-23T14:40:49;99358.69;;;18.61;45.45
69223;BME280;56514;51.816;-0.026;2023-04-23T14:43:35;99365.81;;;18.25;45.87
69223;BME280;56514;51.816;-0.026;2023-04-23T14:46:21;99355.72;;;17.92;46.23
69223;BME280;56514;51.816;-0.026;2023-04-23T14:49:06;99362.03;;;17.91;46.56
69223;BME280;56514;51.816;-0.026;2023-04-23T14:51:52;99360.00;;;18.07;46.92
69223;BME280;56514;51.816;-0.026;2023-04-23T14:54:41;99366.28;;;18.14;46.47
69223;BME280;56514;51.816;-0.026;2023-04-23T14:57:26;99370.06;;;18.05;45.91
69223;BME280;56514;51.816;-0.026;2023-04-23T15:00:12;99356.06;;;17.89;45.65
69223;BME280;56514;51.816;-0.026;2023-04-23T15:02:58;99363.22;;;18.03;46.26
69223;BME280;56514;51.816;-0.026;2023-04-23T15:05:43;99370.13;;;18.12;45.94
69223;BME280;56514;51.816;-0.026;2023-04-23T15:08:48;99362.50;;;18.09;45.78
69223;BME280;56514;51.816;-0.026;2023-04-23T15:11:53;99366.91;;;18.31;45.66
69223;BME280;56514;51.816;-0.026;2023-04-23T15:15:04;99371.75;;;18.71;45.00
69223;BME280;56514;51.816;-0.026;2023-04-23T15:18:14;99361.41;;;19.03;44.63
69223;BME280;56514;51.816;-0.026;2023-04-23T15:21:24;99369.25;;;19.47;43.51
69223;BME280;56514;51.816;-0.026;2023-04-23T15:24:33;99364.25;;;19.72;43.50
69223;BME280;56514;51.816;-0.026;2023-04-23T15:27:44;99365.28;;;19.71;43.41
69223;BME280;56514;51.816;-0.026;2023-04-23T15:30:54;99360.72;;;19.92;43.84
69223;BME280;56514;51.816;-0.026;2023-04-23T15:34:05;99358.31;;;20.38;43.89
69223;BME280;56514;51.816;-0.026;2023-04-23T15:37:17;99371.13;;;21.09;42.48
69223;BME280;56514;51.816;-0.026;2023-04-23T15:40:30;99363.22;;;22.38;39.90